sensor_id;sensor_type;location;lat;lon;timestamp;P1;durP1;ratioP1;P2;durP2;ratioP2
35126;SDS011;21300;52.006;5.798;2023-09-12T00:01:16;46.88;;;33.85;;
35126;SDS011;21300;52.006;5.798;2023-09-12T00:03:42;46.10;;;33.22;;
35126;SDS011;21300;52.006;5.798;2023-09-12T00:06:07;46.15;;;34.28;;
35126;SDS011;21300;52.006;5.798;2023-09-12T00:08:33;44.75;;;34.25;;
35126;SDS011;21300;52.006;5.798;2023-09-12T00:11:03;51.03;;;35.97;;
35126;SDS011;21300;52.006;5.798;2023-09-12T00:13:31;44.30;;;33.10;;
35126;SDS011;21300;52.006;5.798;2023-09-12T00:15:57;41.28;;;31.55;;
35126;SDS011;21300;52.006;5.798;2023-09-12T00:18:23;42.22;;;32.67;;
35126;SDS011;21300;52.006;5.798;2023-09-12T00:20:50;43.47;;;32.88;;
35126;SDS011;21300;52.006;5.798;2023-09-12T00:23:16;46.55;;;34.17;;
35126;SDS011;21300;52.006;5.798;2023-09-12T00:25:42;41.92;;;33.03;;
35126;SDS011;21300;52.006;5.798;2023-09-12T00:28:08;45.03;;;32.20;;
35126;SDS011;21300;52.006;5.798;2023-09-12T00:30:33;34.42;;;27.17;;
35126;SDS011;21300;52.006;5.798;2023-09-12T00:32:59;33.40;;;27.23;;
35126;SDS011;21300;52.006;5.798;2023-09-12T00:35:25;34.25;;;28.05;;
35126;SDS011;21300;52.006;5.798;2023-09-12T00:37:50;36.65;;;29.25;;
35126;SDS011;21300;52.006;5.798;2023-09-12T00:40:16;34.78;;;27.15;;
35126;SDS011;21300;52.006;5.798;2023-09-12T00:42:41;38.78;;;29.10;;
35126;SDS011;21300;52.006;5.798;2023-09-12T00:45:07;40.50;;;30.85;;
35126;SDS011;21300;52.006;5.798;2023-09-12T00:47:33;41.05;;;32.05;;
35126;SDS011;21300;52.006;5.798;2023-09-12T00:50:01;40.55;;;30.98;;
35126;SDS011;21300;52.006;5.798;2023-09-12T00:52:29;41.03;;;31.33;;
35126;SDS011;21300;52.006;5.798;2023-09-12T00:54:56;41.83;;;32.17;;
35126;SDS011;21300;52.006;5.798;2023-09-12T00:57:22;40.83;;;30.98;;
35126;SDS011;21300;52.006;5.798;2023-09-12T00:59:48;41.80;;;31.33;;
35126;SDS011;21300;52.006;5.798;2023-09-12T01:02:14;46.55;;;34.67;;
35126;SDS011;21300;52.006;5.798;2023-09-12T01:04:41;42.53;;;31.55;;
35126;SDS011;21300;52.006;5.798;2023-09-12T01:07:07;42.78;;;31.88;;
35126;SDS011;21300;52.006;5.798;2023-09-12T01:09:33;42.70;;;32.05;;
35126;SDS011;21300;52.006;5.798;2023-09-12T01:11:59;46.75;;;32.30;;
35126;SDS011;21300;52.006;5.798;2023-09-12T01:14:28;41.58;;;30.67;;
35126;SDS011;21300;52.006;5.798;2023-09-12T01:16:57;34.63;;;26.80;;
35126;SDS011;21300;52.006;5.798;2023-09-12T01:19:23;40.55;;;29.92;;
35126;SDS011;21300;52.006;5.798;2023-09-12T01:27:32;35.40;;;26.00;;
35126;SDS011;21300;52.006;5.798;2023-09-12T01:30:04;33.33;;;25.20;;
35126;SDS011;21300;52.006;5.798;2023-09-12T01:32:31;28.67;;;23.58;;
35126;SDS011;21300;52.006;5.798;2023-09-12T01:34:58;25.73;;;20.02;;
35126;SDS011;21300;52.006;5.798;2023-09-12T01:37:24;30.80;;;25.13;;
35126;SDS011;21300;52.006;5.798;2023-09-12T01:39:49;32.17;;;25.67;;
35126;SDS011;21300;52.006;5.798;2023-09-12T01:42:16;44.15;;;32.40;;
35126;SDS011;21300;52.006;5.798;2023-09-12T01:44:45;40.00;;;29.08;;
35126;SDS011;21300;52.006;5.798;2023-09-12T01:47:12;33.85;;;26.65;;
35126;SDS011;21300;52.006;5.798;2023-09-12T01:49:44;35.38;;;27.75;;
35126;SDS011;21300;52.006;5.798;2023-09-12T01:52:12;38.08;;;27.95;;
35126;SDS011;21300;52.006;5.798;2023-09-12T01:54:39;33.72;;;25.85;;
35126;SDS011;21300;52.006;5.798;2023-09-12T01:57:07;35.63;;;25.90;;
35126;SDS011;21300;52.006;5.798;2023-09-12T01:59:33;35.38;;;26.08;;
35126;SDS011;21300;52.006;5.798;2023-09-12T02:01:59;36.63;;;26.02;;
35126;SDS011;21300;52.006;5.798;2023-09-12T02:04:25;35.00;;;26.73;;
35126;SDS011;21300;52.006;5.798;2023-09-12T02:06:50;25.00;;;20.80;;
35126;SDS011;21300;52.006;5.798;2023-09-12T02:09:16;32.28;;;23.63;;
35126;SDS011;21300;52.006;5.798;2023-09-12T02:11:42;34.47;;;26.90;;
35126;SDS011;21300;52.006;5.798;2023-09-12T02:14:07;37.17;;;27.55;;
35126;SDS011;21300;52.006;5.798;2023-09-12T02:16:35;33.70;;;25.25;;
35126;SDS011;21300;52.006;5.798;2023-09-12T02:19:02;29.38;;;23.85;;
35126;SDS011;21300;52.006;5.798;2023-09-12T02:21:28;28.63;;;22.90;;
35126;SDS011;21300;52.006;5.798;2023-09-12T02:23:54;31.50;;;23.27;;
35126;SDS011;21300;52.006;5.798;2023-09-12T02:26:20;27.80;;;23.13;;
35126;SDS011;21300;52.006;5.798;2023-09-12T02:28:45;31.98;;;24.77;;
35126;SDS011;21300;52.006;5.798;2023-09-12T02:31:11;32.25;;;25.38;;
35126;SDS011;21300;52.006;5.798;2023-09-12T02:33:37;34.17;;;26.85;;
35126;SDS011;21300;52.006;5.798;2023-09-12T02:36:03;31.05;;;23.45;;
35126;SDS011;21300;52.006;5.798;2023-09-12T02:38:30;26.75;;;20.23;;
35126;SDS011;21300;52.006;5.798;2023-09-12T02:40:55;28.33;;;23.48;;
35126;SDS011;21300;52.006;5.798;2023-09-12T02:43:21;30.27;;;23.05;;
35126;SDS011;21300;52.006;5.798;2023-09-12T02:45:47;28.52;;;22.83;;
35126;SDS011;21300;52.006;5.798;2023-09-12T02:48:12;28.95;;;22.33;;
35126;SDS011;21300;52.006;5.798;2023-09-12T02:50:38;22.42;;;18.73;;
35126;SDS011;21300;52.006;5.798;2023-09-12T02:53:04;27.80;;;23.08;;
35126;SDS011;21300;52.006;5.798;2023-09-12T02:55:29;26.95;;;22.17;;
35126;SDS011;21300;52.006;5.798;2023-09-12T02:57:55;27.67;;;22.40;;
35126;SDS011;21300;52.006;5.798;2023-09-12T03:00:21;29.52;;;24.08;;
35126;SDS011;21300;52.006;5.798;2023-09-12T03:02:47;25.85;;;22.92;;
35126;SDS011;21300;52.006;5.798;2023-09-12T03:05:13;24.25;;;21.05;;
35126;SDS011;21300;52.006;5.798;2023-09-12T03:07:38;23.45;;;21.00;;
35126;SDS011;21300;52.006;5.798;2023-09-12T03:10:04;25.17;;;22.48;;
35126;SDS011;21300;52.006;5.798;2023-09-12T03:12:30;24.42;;;21.83;;
35126;SDS011;21300;52.006;5.798;2023-09-12T03:14:56;21.55;;;19.17;;
35126;SDS011;21300;52.006;5.798;2023-09-12T03:17:21;22.33;;;19.92;;
35126;SDS011;21300;52.006;5.798;2023-09-12T03:19:47;23.65;;;20.80;;
35126;SDS011;21300;52.006;5.798;2023-09-12T03:22:13;22.20;;;18.80;;
35126;SDS011;21300;52.006;5.798;2023-09-12T03:24:38;23.75;;;19.45;;
35126;SDS011;21300;52.006;5.798;2023-09-12T03:27:04;20.90;;;18.80;;
35126;SDS011;21300;52.006;5.798;2023-09-12T03:29:30;20.25;;;18.15;;
35126;SDS011;21300;52.006;5.798;2023-09-12T03:31:55;21.40;;;19.20;;
35126;SDS011;21300;52.006;5.798;2023-09-12T03:34:21;20.90;;;18.80;;
35126;SDS011;21300;52.006;5.798;2023-09-12T03:36:47;19.35;;;17.40;;
35126;SDS011;21300;52.006;5.798;2023-09-12T03:39:12;21.17;;;18.92;;
35126;SDS011;21300;52.006;5.798;2023-09-12T03:41:38;21.38;;;19.10;;
35126;SDS011;21300;52.006;5.798;2023-09-12T03:44:05;19.17;;;17.23;;
35126;SDS011;21300;52.006;5.798;2023-09-12T03:46:30;20.48;;;17.67;;
35126;SDS011;21300;52.006;5.798;2023-09-12T03:48:56;23.27;;;20.58;;
35126;SDS011;21300;52.006;5.798;2023-09-12T03:51:21;22.77;;;20.10;;
35126;SDS011;21300;52.006;5.798;2023-09-12T03:53:47;22.98;;;20.25;;
35126;SDS011;21300;52.006;5.798;2023-09-12T03:56:15;24.30;;;21.73;;
35126;SDS011;21300;52.006;5.798;2023-09-12T03:58:41;23.50;;;20.85;;
35126;SDS011;21300;52.006;5.798;2023-09-12T04:01:06;23.88;;;20.27;;
35126;SDS011;21300;52.006;5.798;2023-09-12T04:03:32;21.80;;;19.33;;
35126;SDS011;21300;52.006;5.798;2023-09-12T04:05:58;21.65;;;18.83;;
35126;SDS011;21300;52.006;5.798;2023-09-12T04:08:24;24.27;;;21.65;;
35126;SDS011;21300;52.006;5.798;2023-09-12T04:10:53;34.03;;;22.80;;
35126;SDS011;21300;52.006;5.798;2023-09-12T04:13:21;27.65;;;22.48;;
35126;SDS011;21300;52.006;5.798;2023-09-12T04:15:47;24.25;;;20.95;;
35126;SDS011;21300;52.006;5.798;2023-09-12T04:18:13;22.55;;;20.25;;
35126;SDS011;21300;52.006;5.798;2023-09-12T04:20:38;20.58;;;18.38;;
35126;SDS011;21300;52.006;5.798;2023-09-12T04:23:04;21.60;;;19.40;;
35126;SDS011;21300;52.006;5.798;2023-09-12T04:25:30;21.90;;;19.02;;
35126;SDS011;21300;52.006;5.798;2023-09-12T04:27:56;20.77;;;18.15;;
35126;SDS011;21300;52.006;5.798;2023-09-12T04:30:22;19.67;;;17.58;;
35126;SDS011;21300;52.006;5.798;2023-09-12T04:32:47;18.70;;;15.70;;
35126;SDS011;21300;52.006;5.798;2023-09-12T04:35:34;22.13;;;19.60;;
35126;SDS011;21300;52.006;5.798;2023-09-12T04:38:00;18.83;;;16.88;;
35126;SDS011;21300;52.006;5.798;2023-09-12T04:40:26;21.90;;;19.60;;
35126;SDS011;21300;52.006;5.798;2023-09-12T04:42:52;22.25;;;19.90;;
35126;SDS011;21300;52.006;5.798;2023-09-12T04:45:18;21.90;;;18.70;;
35126;SDS011;21300;52.006;5.798;2023-09-12T04:47:44;23.10;;;19.55;;
35126;SDS011;21300;52.006;5.798;2023-09-12T04:50:09;23.40;;;19.42;;
35126;SDS011;21300;52.006;5.798;2023-09-12T04:52:36;26.42;;;20.50;;
35126;SDS011;21300;52.006;5.798;2023-09-12T04:55:02;22.60;;;18.48;;
35126;SDS011;21300;52.006;5.798;2023-09-12T04:57:28;24.98;;;20.50;;
35126;SDS011;21300;52.006;5.798;2023-09-12T04:59:55;24.08;;;19.10;;
35126;SDS011;21300;52.006;5.798;2023-09-12T05:02:22;25.23;;;19.38;;
35126;SDS011;21300;52.006;5.798;2023-09-12T05:04:47;22.50;;;17.80;;
35126;SDS011;21300;52.006;5.798;2023-09-12T05:07:13;24.27;;;19.17;;
35126;SDS011;21300;52.006;5.798;2023-09-12T05:09:39;23.80;;;18.92;;
35126;SDS011;21300;52.006;5.798;2023-09-12T05:12:04;28.55;;;20.85;;
35126;SDS011;21300;52.006;5.798;2023-09-12T05:14:30;27.73;;;19.50;;
35126;SDS011;21300;52.006;5.798;2023-09-12T05:16:56;26.70;;;20.92;;
35126;SDS011;21300;52.006;5.798;2023-09-12T05:19:21;25.30;;;19.98;;
35126;SDS011;21300;52.006;5.798;2023-09-12T05:21:48;24.60;;;19.27;;
35126;SDS011;21300;52.006;5.798;2023-09-12T05:24:13;27.50;;;19.38;;
35126;SDS011;21300;52.006;5.798;2023-09-12T05:26:39;23.13;;;20.02;;
35126;SDS011;21300;52.006;5.798;2023-09-12T05:29:04;25.75;;;18.50;;
35126;SDS011;21300;52.006;5.798;2023-09-12T05:31:30;25.75;;;19.55;;
35126;SDS011;21300;52.006;5.798;2023-09-12T05:33:56;23.05;;;19.35;;
35126;SDS011;21300;52.006;5.798;2023-09-12T05:36:22;23.27;;;18.42;;
35126;SDS011;21300;52.006;5.798;2023-09-12T05:38:48;23.60;;;18.23;;
35126;SDS011;21300;52.006;5.798;2023-09-12T05:41:13;25.67;;;19.00;;
35126;SDS011;21300;52.006;5.798;2023-09-12T05:43:39;23.65;;;18.55;;
35126;SDS011;21300;52.006;5.798;2023-09-12T05:46:07;28.55;;;18.95;;
35126;SDS011;21300;52.006;5.798;2023-09-12T05:48:33;23.40;;;18.23;;
35126;SDS011;21300;52.006;5.798;2023-09-12T05:50:58;29.23;;;20.23;;
35126;SDS011;21300;52.006;5.798;2023-09-12T05:53:24;30.23;;;20.25;;
35126;SDS011;21300;52.006;5.798;2023-09-12T05:55:49;31.67;;;21.02;;
35126;SDS011;21300;52.006;5.798;2023-09-12T05:58:15;31.30;;;21.75;;
35126;SDS011;21300;52.006;5.798;2023-09-12T06:00:41;28.92;;;20.58;;
35126;SDS011;21300;52.006;5.798;2023-09-12T06:03:06;31.92;;;21.38;;
35126;SDS011;21300;52.006;5.798;2023-09-12T06:05:32;30.50;;;20.77;;
35126;SDS011;21300;52.006;5.798;2023-09-12T06:07:57;48.60;;;29.67;;
35126;SDS011;21300;52.006;5.798;2023-09-12T06:10:23;57.70;;;36.40;;
35126;SDS011;21300;52.006;5.798;2023-09-12T06:12:49;70.88;;;40.97;;
35126;SDS011;21300;52.006;5.798;2023-09-12T06:15:15;63.45;;;36.50;;
35126;SDS011;21300;52.006;5.798;2023-09-12T06:17:40;70.15;;;41.17;;
35126;SDS011;21300;52.006;5.798;2023-09-12T06:20:06;68.07;;;39.60;;
35126;SDS011;21300;52.006;5.798;2023-09-12T06:22:32;89.78;;;44.08;;
35126;SDS011;21300;52.006;5.798;2023-09-12T06:24:59;79.88;;;43.15;;
35126;SDS011;21300;52.006;5.798;2023-09-12T06:27:24;67.15;;;41.25;;
35126;SDS011;21300;52.006;5.798;2023-09-12T06:29:50;69.78;;;41.58;;
35126;SDS011;21300;52.006;5.798;2023-09-12T06:32:17;66.00;;;40.30;;
35126;SDS011;21300;52.006;5.798;2023-09-12T06:34:43;69.40;;;42.38;;
35126;SDS011;21300;52.006;5.798;2023-09-12T06:37:10;66.18;;;41.38;;
35126;SDS011;21300;52.006;5.798;2023-09-12T06:39:36;71.05;;;43.78;;
35126;SDS011;21300;52.006;5.798;2023-09-12T06:42:01;85.80;;;46.22;;
35126;SDS011;21300;52.006;5.798;2023-09-12T06:44:27;85.38;;;48.30;;
35126;SDS011;21300;52.006;5.798;2023-09-12T06:46:53;86.22;;;47.90;;
35126;SDS011;21300;52.006;5.798;2023-09-12T06:49:18;82.72;;;47.38;;
35126;SDS011;21300;52.006;5.798;2023-09-12T06:51:44;84.78;;;47.53;;
35126;SDS011;21300;52.006;5.798;2023-09-12T06:54:10;84.20;;;47.67;;
35126;SDS011;21300;52.006;5.798;2023-09-12T06:56:35;78.93;;;47.35;;
35126;SDS011;21300;52.006;5.798;2023-09-12T06:59:03;74.40;;;47.67;;
35126;SDS011;21300;52.006;5.798;2023-09-12T07:01:29;84.82;;;51.17;;
35126;SDS011;21300;52.006;5.798;2023-09-12T07:03:55;84.95;;;52.10;;
35126;SDS011;21300;52.006;5.798;2023-09-12T07:06:21;86.38;;;51.88;;
35126;SDS011;21300;52.006;5.798;2023-09-12T07:08:48;79.57;;;49.92;;
35126;SDS011;21300;52.006;5.798;2023-09-12T07:11:13;80.82;;;49.38;;
35126;SDS011;21300;52.006;5.798;2023-09-12T07:13:39;87.30;;;53.17;;
35126;SDS011;21300;52.006;5.798;2023-09-12T07:16:05;88.50;;;50.90;;
35126;SDS011;21300;52.006;5.798;2023-09-12T07:18:33;79.97;;;49.33;;
35126;SDS011;21300;52.006;5.798;2023-09-12T07:21:03;89.55;;;53.42;;
35126;SDS011;21300;52.006;5.798;2023-09-12T07:23:29;96.55;;;54.20;;
35126;SDS011;21300;52.006;5.798;2023-09-12T07:25:55;88.25;;;51.00;;
35126;SDS011;21300;52.006;5.798;2023-09-12T07:28:24;81.57;;;50.78;;
35126;SDS011;21300;52.006;5.798;2023-09-12T07:30:51;79.57;;;48.08;;
35126;SDS011;21300;52.006;5.798;2023-09-12T07:33:16;87.30;;;51.90;;
35126;SDS011;21300;52.006;5.798;2023-09-12T07:35:42;72.07;;;47.50;;
35126;SDS011;21300;52.006;5.798;2023-09-12T07:38:08;80.85;;;49.35;;
35126;SDS011;21300;52.006;5.798;2023-09-12T07:40:33;76.55;;;48.60;;
35126;SDS011;21300;52.006;5.798;2023-09-12T07:43:02;81.13;;;49.55;;
35126;SDS011;21300;52.006;5.798;2023-09-12T07:45:27;77.07;;;48.58;;
35126;SDS011;21300;52.006;5.798;2023-09-12T07:47:54;79.53;;;50.72;;
35126;SDS011;21300;52.006;5.798;2023-09-12T07:50:20;82.20;;;48.80;;
35126;SDS011;21300;52.006;5.798;2023-09-12T07:52:45;83.10;;;50.20;;
35126;SDS011;21300;52.006;5.798;2023-09-12T07:55:11;76.10;;;46.58;;
35126;SDS011;21300;52.006;5.798;2023-09-12T07:57:37;80.68;;;49.15;;
35126;SDS011;21300;52.006;5.798;2023-09-12T08:00:03;82.25;;;51.00;;
35126;SDS011;21300;52.006;5.798;2023-09-12T08:02:32;77.85;;;47.42;;
35126;SDS011;21300;52.006;5.798;2023-09-12T08:04:58;77.72;;;49.63;;
35126;SDS011;21300;52.006;5.798;2023-09-12T08:07:24;79.38;;;49.45;;
35126;SDS011;21300;52.006;5.798;2023-09-12T08:09:51;88.43;;;51.20;;
35126;SDS011;21300;52.006;5.798;2023-09-12T08:12:25;90.17;;;52.93;;
35126;SDS011;21300;52.006;5.798;2023-09-12T08:14:52;87.75;;;50.65;;
35126;SDS011;21300;52.006;5.798;2023-09-12T08:17:18;89.13;;;53.80;;
35126;SDS011;21300;52.006;5.798;2023-09-12T08:19:44;94.20;;;54.65;;
35126;SDS011;21300;52.006;5.798;2023-09-12T08:22:10;93.07;;;56.60;;
35126;SDS011;21300;52.006;5.798;2023-09-12T08:24:37;95.25;;;57.50;;
35126;SDS011;21300;52.006;5.798;2023-09-12T08:27:04;92.32;;;54.22;;
35126;SDS011;21300;52.006;5.798;2023-09-12T08:29:30;97.70;;;57.97;;
35126;SDS011;21300;52.006;5.798;2023-09-12T08:31:57;90.25;;;55.17;;
35126;SDS011;21300;52.006;5.798;2023-09-12T08:34:23;98.45;;;58.28;;
35126;SDS011;21300;52.006;5.798;2023-09-12T08:36:48;94.22;;;57.33;;
35126;SDS011;21300;52.006;5.798;2023-09-12T08:39:15;90.00;;;55.38;;
35126;SDS011;21300;52.006;5.798;2023-09-12T08:41:44;83.47;;;51.92;;
35126;SDS011;21300;52.006;5.798;2023-09-12T08:44:11;80.80;;;50.78;;
35126;SDS011;21300;52.006;5.798;2023-09-12T08:46:38;77.38;;;49.72;;
35126;SDS011;21300;52.006;5.798;2023-09-12T08:49:08;74.28;;;49.17;;
35126;SDS011;21300;52.006;5.798;2023-09-12T08:51:35;80.22;;;48.75;;
35126;SDS011;21300;52.006;5.798;2023-09-12T08:54:04;69.60;;;45.25;;
35126;SDS011;21300;52.006;5.798;2023-09-12T08:56:31;70.85;;;46.00;;
35126;SDS011;21300;52.006;5.798;2023-09-12T08:58:59;72.22;;;44.65;;
35126;SDS011;21300;52.006;5.798;2023-09-12T09:01:26;66.72;;;45.33;;
35126;SDS011;21300;52.006;5.798;2023-09-12T09:03:54;68.40;;;44.63;;
35126;SDS011;21300;52.006;5.798;2023-09-12T09:06:22;66.03;;;43.85;;
35126;SDS011;21300;52.006;5.798;2023-09-12T09:08:49;63.65;;;43.63;;
35126;SDS011;21300;52.006;5.798;2023-09-12T09:11:15;69.55;;;42.75;;
35126;SDS011;21300;52.006;5.798;2023-09-12T09:13:41;53.47;;;35.67;;
35126;SDS011;21300;52.006;5.798;2023-09-12T09:21:23;48.17;;;33.50;;
35126;SDS011;21300;52.006;5.798;2023-09-12T09:23:52;41.78;;;30.73;;
35126;SDS011;21300;52.006;5.798;2023-09-12T09:26:18;46.22;;;31.38;;
35126;SDS011;21300;52.006;5.798;2023-09-12T09:28:45;44.08;;;29.83;;
35126;SDS011;21300;52.006;5.798;2023-09-12T09:31:11;43.15;;;30.23;;
35126;SDS011;21300;52.006;5.798;2023-09-12T09:33:37;45.97;;;30.58;;
35126;SDS011;21300;52.006;5.798;2023-09-12T09:36:06;38.55;;;27.90;;
35126;SDS011;21300;52.006;5.798;2023-09-12T09:38:34;38.03;;;26.88;;
35126;SDS011;21300;52.006;5.798;2023-09-12T09:41:03;33.92;;;25.52;;
35126;SDS011;21300;52.006;5.798;2023-09-12T09:43:30;36.58;;;25.25;;
35126;SDS011;21300;52.006;5.798;2023-09-12T09:45:57;41.22;;;30.15;;
35126;SDS011;21300;52.006;5.798;2023-09-12T09:48:24;44.20;;;30.30;;
35126;SDS011;21300;52.006;5.798;2023-09-12T09:51:03;47.90;;;32.42;;
35126;SDS011;21300;52.006;5.798;2023-09-12T09:53:29;45.95;;;31.83;;
35126;SDS011;21300;52.006;5.798;2023-09-12T09:56:07;45.22;;;31.15;;
35126;SDS011;21300;52.006;5.798;2023-09-12T09:58:34;43.65;;;30.95;;
35126;SDS011;21300;52.006;5.798;2023-09-12T10:01:00;47.03;;;31.10;;
35126;SDS011;21300;52.006;5.798;2023-09-12T10:03:28;39.67;;;26.92;;
35126;SDS011;21300;52.006;5.798;2023-09-12T10:05:55;33.55;;;23.88;;
35126;SDS011;21300;52.006;5.798;2023-09-12T10:08:23;30.73;;;21.60;;
35126;SDS011;21300;52.006;5.798;2023-09-12T10:10:51;33.28;;;25.48;;
35126;SDS011;21300;52.006;5.798;2023-09-12T10:13:16;39.20;;;27.15;;
35126;SDS011;21300;52.006;5.798;2023-09-12T10:15:44;35.20;;;25.13;;
35126;SDS011;21300;52.006;5.798;2023-09-12T10:18:13;31.58;;;22.02;;
35126;SDS011;21300;52.006;5.798;2023-09-12T10:20:50;29.58;;;21.85;;
35126;SDS011;21300;52.006;5.798;2023-09-12T10:23:23;29.83;;;21.92;;
35126;SDS011;21300;52.006;5.798;2023-09-12T10:25:58;30.15;;;22.40;;
35126;SDS011;21300;52.006;5.798;2023-09-12T10:28:25;29.75;;;22.17;;
35126;SDS011;21300;52.006;5.798;2023-09-12T10:30:52;28.50;;;21.92;;
35126;SDS011;21300;52.006;5.798;2023-09-12T10:33:18;24.52;;;16.35;;
35126;SDS011;21300;52.006;5.798;2023-09-12T10:35:45;21.88;;;17.17;;
35126;SDS011;21300;52.006;5.798;2023-09-12T10:38:11;29.25;;;20.92;;
35126;SDS011;21300;52.006;5.798;2023-09-12T10:40:39;27.73;;;18.92;;
35126;SDS011;21300;52.006;5.798;2023-09-12T10:43:05;26.90;;;20.30;;
35126;SDS011;21300;52.006;5.798;2023-09-12T10:45:35;27.35;;;19.67;;
35126;SDS011;21300;52.006;5.798;2023-09-12T10:48:01;26.67;;;18.77;;
35126;SDS011;21300;52.006;5.798;2023-09-12T10:50:28;22.98;;;16.38;;
35126;SDS011;21300;52.006;5.798;2023-09-12T10:52:54;22.75;;;17.20;;
35126;SDS011;21300;52.006;5.798;2023-09-12T10:55:19;23.67;;;16.00;;
35126;SDS011;21300;52.006;5.798;2023-09-12T10:58:04;24.70;;;18.42;;
35126;SDS011;21300;52.006;5.798;2023-09-12T11:00:35;29.95;;;20.95;;
35126;SDS011;21300;52.006;5.798;2023-09-12T11:05:53;28.60;;;18.73;;
35126;SDS011;21300;52.006;5.798;2023-09-12T11:08:20;28.02;;;19.70;;
35126;SDS011;21300;52.006;5.798;2023-09-12T11:10:58;26.85;;;17.85;;
35126;SDS011;21300;52.006;5.798;2023-09-12T11:13:46;22.35;;;16.10;;
35126;SDS011;21300;52.006;5.798;2023-09-12T11:16:27;19.08;;;13.93;;
35126;SDS011;21300;52.006;5.798;2023-09-12T11:21:38;21.20;;;15.35;;
35126;SDS011;21300;52.006;5.798;2023-09-12T11:24:04;20.08;;;13.75;;
35126;SDS011;21300;52.006;5.798;2023-09-12T11:26:30;20.88;;;13.90;;
35126;SDS011;21300;52.006;5.798;2023-09-12T11:28:55;21.58;;;15.05;;
35126;SDS011;21300;52.006;5.798;2023-09-12T11:31:27;21.63;;;12.50;;
35126;SDS011;21300;52.006;5.798;2023-09-12T11:33:53;21.42;;;13.70;;
35126;SDS011;21300;52.006;5.798;2023-09-12T11:36:19;19.27;;;12.80;;
35126;SDS011;21300;52.006;5.798;2023-09-12T11:38:48;20.05;;;13.02;;
35126;SDS011;21300;52.006;5.798;2023-09-12T11:41:38;19.67;;;13.95;;
35126;SDS011;21300;52.006;5.798;2023-09-12T11:44:04;19.13;;;13.48;;
35126;SDS011;21300;52.006;5.798;2023-09-12T11:46:32;18.23;;;13.43;;
35126;SDS011;21300;52.006;5.798;2023-09-12T11:49:00;18.02;;;13.27;;
35126;SDS011;21300;52.006;5.798;2023-09-12T11:51:27;17.60;;;11.93;;
35126;SDS011;21300;52.006;5.798;2023-09-12T11:53:53;16.70;;;11.63;;
35126;SDS011;21300;52.006;5.798;2023-09-12T11:56:20;17.52;;;10.07;;
35126;SDS011;21300;52.006;5.798;2023-09-12T11:58:46;17.52;;;11.85;;
35126;SDS011;21300;52.006;5.798;2023-09-12T12:01:12;14.88;;;10.38;;
35126;SDS011;21300;52.006;5.798;2023-09-12T12:03:38;16.55;;;11.25;;
35126;SDS011;21300;52.006;5.798;2023-09-12T12:06:04;20.02;;;12.98;;
35126;SDS011;21300;52.006;5.798;2023-09-12T12:08:30;20.88;;;13.85;;
35126;SDS011;21300;52.006;5.798;2023-09-12T12:10:56;18.05;;;12.50;;
35126;SDS011;21300;52.006;5.798;2023-09-12T12:13:32;17.08;;;11.63;;
35126;SDS011;21300;52.006;5.798;2023-09-12T12:15:58;16.60;;;11.57;;
35126;SDS011;21300;52.006;5.798;2023-09-12T12:18:23;14.90;;;10.95;;
35126;SDS011;21300;52.006;5.798;2023-09-12T12:20:49;16.48;;;9.15;;
35126;SDS011;21300;52.006;5.798;2023-09-12T12:23:15;15.60;;;10.20;;
35126;SDS011;21300;52.006;5.798;2023-09-12T12:25:41;19.48;;;10.60;;
35126;SDS011;21300;52.006;5.798;2023-09-12T12:28:06;11.00;;;8.63;;
35126;SDS011;21300;52.006;5.798;2023-09-12T12:30:33;11.43;;;8.27;;
35126;SDS011;21300;52.006;5.798;2023-09-12T12:33:01;10.40;;;6.55;;
35126;SDS011;21300;52.006;5.798;2023-09-12T12:35:31;13.20;;;8.65;;
35126;SDS011;21300;52.006;5.798;2023-09-12T12:37:56;14.88;;;11.05;;
35126;SDS011;21300;52.006;5.798;2023-09-12T12:40:22;15.95;;;11.43;;
35126;SDS011;21300;52.006;5.798;2023-09-12T12:42:48;16.83;;;10.30;;
35126;SDS011;21300;52.006;5.798;2023-09-12T12:45:15;13.88;;;9.10;;
35126;SDS011;21300;52.006;5.798;2023-09-12T12:47:45;11.02;;;7.13;;
35126;SDS011;21300;52.006;5.798;2023-09-12T12:50:11;12.77;;;8.88;;
35126;SDS011;21300;52.006;5.798;2023-09-12T12:52:38;16.67;;;9.43;;
35126;SDS011;21300;52.006;5.798;2023-09-12T12:55:11;14.10;;;9.60;;
35126;SDS011;21300;52.006;5.798;2023-09-12T12:57:41;16.23;;;10.13;;
35126;SDS011;21300;52.006;5.798;2023-09-12T13:00:11;14.40;;;9.10;;
35126;SDS011;21300;52.006;5.798;2023-09-12T13:02:39;11.50;;;7.88;;
35126;SDS011;21300;52.006;5.798;2023-09-12T13:05:06;13.95;;;7.88;;
35126;SDS011;21300;52.006;5.798;2023-09-12T13:07:44;11.60;;;6.70;;
35126;SDS011;21300;52.006;5.798;2023-09-12T13:10:10;12.52;;;7.03;;
35126;SDS011;21300;52.006;5.798;2023-09-12T13:12:36;8.70;;;7.07;;
35126;SDS011;21300;52.006;5.798;2023-09-12T13:15:03;12.25;;;8.52;;
35126;SDS011;21300;52.006;5.798;2023-09-12T13:17:29;13.95;;;9.73;;
35126;SDS011;21300;52.006;5.798;2023-09-12T13:19:55;11.68;;;8.18;;
35126;SDS011;21300;52.006;5.798;2023-09-12T13:22:21;16.65;;;9.57;;
35126;SDS011;21300;52.006;5.798;2023-09-12T13:24:47;15.50;;;10.70;;
35126;SDS011;21300;52.006;5.798;2023-09-12T13:27:13;10.80;;;7.85;;
35126;SDS011;21300;52.006;5.798;2023-09-12T13:29:38;10.60;;;7.57;;
35126;SDS011;21300;52.006;5.798;2023-09-12T13:32:04;12.80;;;7.65;;
35126;SDS011;21300;52.006;5.798;2023-09-12T13:34:30;11.98;;;8.68;;
35126;SDS011;21300;52.006;5.798;2023-09-12T13:36:55;12.00;;;7.28;;
35126;SDS011;21300;52.006;5.798;2023-09-12T13:39:22;13.45;;;8.25;;
35126;SDS011;21300;52.006;5.798;2023-09-12T13:41:47;11.45;;;7.38;;
35126;SDS011;21300;52.006;5.798;2023-09-12T13:44:13;7.43;;;6.15;;
35126;SDS011;21300;52.006;5.798;2023-09-12T13:46:39;8.45;;;5.57;;
35126;SDS011;21300;52.006;5.798;2023-09-12T13:49:15;9.73;;;5.80;;
35126;SDS011;21300;52.006;5.798;2023-09-12T13:51:41;10.50;;;6.45;;
35126;SDS011;21300;52.006;5.798;2023-09-12T13:54:07;9.00;;;6.50;;
35126;SDS011;21300;52.006;5.798;2023-09-12T13:56:39;8.77;;;5.68;;
35126;SDS011;21300;52.006;5.798;2023-09-12T13:59:09;9.63;;;7.05;;
35126;SDS011;21300;52.006;5.798;2023-09-12T14:01:35;13.48;;;7.20;;
35126;SDS011;21300;52.006;5.798;2023-09-12T14:04:01;11.60;;;7.10;;
35126;SDS011;21300;52.006;5.798;2023-09-12T14:06:28;14.60;;;9.50;;
35126;SDS011;21300;52.006;5.798;2023-09-12T14:08:54;13.68;;;9.23;;
35126;SDS011;21300;52.006;5.798;2023-09-12T14:11:19;13.50;;;9.75;;
35126;SDS011;21300;52.006;5.798;2023-09-12T14:13:45;14.95;;;9.07;;
35126;SDS011;21300;52.006;5.798;2023-09-12T14:16:11;9.40;;;7.25;;
35126;SDS011;21300;52.006;5.798;2023-09-12T14:18:45;16.17;;;10.57;;
35126;SDS011;21300;52.006;5.798;2023-09-12T14:21:11;11.07;;;9.13;;
35126;SDS011;21300;52.006;5.798;2023-09-12T14:23:37;15.13;;;10.35;;
35126;SDS011;21300;52.006;5.798;2023-09-12T14:26:05;16.27;;;10.55;;
35126;SDS011;21300;52.006;5.798;2023-09-12T14:28:36;12.65;;;9.75;;
35126;SDS011;21300;52.006;5.798;2023-09-12T14:31:02;13.45;;;11.23;;
35126;SDS011;21300;52.006;5.798;2023-09-12T14:33:38;14.43;;;10.27;;
35126;SDS011;21300;52.006;5.798;2023-09-12T14:36:03;14.73;;;9.38;;
35126;SDS011;21300;52.006;5.798;2023-09-12T14:38:29;11.75;;;9.68;;